Terminal Aerodrome Forecast
Issued by NWS

Home | Current Version | Previous Version | Text Only | Print | Product List | Glossary On
Versions: 1 2 3 4 5 6 7 8 9 10 11 12 13 14 15 16 17 18 19 20 21
038
FTUS43 KDTX 282338
TAFMBS
TAF
KMBS 282338Z 2900/2924 VRB03KT P6SM SKC
     FM290800 VRB03KT 4SM BR SCT008
     FM291400 04005KT P6SM SCT020
     FM291600 06005KT P6SM SCT040
     FM292000 04005KT P6SM SKC=

USA.gov is the U.S. government's official web portal to all federal, state and local government web resources and services.